sensor_id;sensor_type;location;lat;lon;timestamp;temperature;humidity
68485;DHT22;55472;50.060;21.960;2023-05-01T00:00:57;5.40;66.70
68485;DHT22;55472;50.060;21.960;2023-05-01T00:03:25;5.40;66.80
68485;DHT22;55472;50.060;21.960;2023-05-01T00:06:02;5.40;67.40
68485;DHT22;55472;50.060;21.960;2023-05-01T00:08:30;5.40;67.00
68485;DHT22;55472;50.060;21.960;2023-05-01T00:11:00;5.40;66.50
68485;DHT22;55472;50.060;21.960;2023-05-01T00:13:29;5.30;67.20
68485;DHT22;55472;50.060;21.960;2023-05-01T00:15:56;5.20;67.60
68485;DHT22;55472;50.060;21.960;2023-05-01T00:18:22;5.20;67.60
68485;DHT22;55472;50.060;21.960;2023-05-01T00:20:48;5.10;68.10
68485;DHT22;55472;50.060;21.960;2023-05-01T00:23:14;5.10;67.90
68485;DHT22;55472;50.060;21.960;2023-05-01T00:25:40;5.00;68.40
68485;DHT22;55472;50.060;21.960;2023-05-01T00:28:07;5.00;68.30
68485;DHT22;55472;50.060;21.960;2023-05-01T00:30:33;4.90;69.10
68485;DHT22;55472;50.060;21.960;2023-05-01T00:32:59;4.80;68.90
68485;DHT22;55472;50.060;21.960;2023-05-01T00:35:26;4.70;69.80
68485;DHT22;55472;50.060;21.960;2023-05-01T00:37:54;4.70;70.50
68485;DHT22;55472;50.060;21.960;2023-05-01T00:40:20;4.60;71.30
68485;DHT22;55472;50.060;21.960;2023-05-01T00:42:47;4.60;71.40
68485;DHT22;55472;50.060;21.960;2023-05-01T00:45:13;4.50;71.60
68485;DHT22;55472;50.060;21.960;2023-05-01T00:47:40;4.50;71.10
68485;DHT22;55472;50.060;21.960;2023-05-01T00:50:07;4.40;71.00
68485;DHT22;55472;50.060;21.960;2023-05-01T00:52:33;4.30;71.20
68485;DHT22;55472;50.060;21.960;2023-05-01T00:55:00;4.30;71.30
68485;DHT22;55472;50.060;21.960;2023-05-01T00:57:26;4.20;71.70
68485;DHT22;55472;50.060;21.960;2023-05-01T00:59:52;4.10;72.10
68485;DHT22;55472;50.060;21.960;2023-05-01T01:02:18;4.10;72.40
68485;DHT22;55472;50.060;21.960;2023-05-01T01:04:46;4.00;72.60
68485;DHT22;55472;50.060;21.960;2023-05-01T01:10:36;3.90;72.80
68485;DHT22;55472;50.060;21.960;2023-05-01T01:13:21;3.90;73.10
68485;DHT22;55472;50.060;21.960;2023-05-01T01:16:18;3.80;73.20
68485;DHT22;55472;50.060;21.960;2023-05-01T01:19:01;3.80;73.20
68485;DHT22;55472;50.060;21.960;2023-05-01T01:21:41;3.70;73.10
68485;DHT22;55472;50.060;21.960;2023-05-01T01:24:12;3.60;74.00
68485;DHT22;55472;50.060;21.960;2023-05-01T01:29:55;3.50;74.80
68485;DHT22;55472;50.060;21.960;2023-05-01T01:32:34;3.50;75.00
68485;DHT22;55472;50.060;21.960;2023-05-01T01:35:24;3.40;75.00
68485;DHT22;55472;50.060;21.960;2023-05-01T01:40:47;3.30;74.40
68485;DHT22;55472;50.060;21.960;2023-05-01T01:43:19;3.30;74.90
68485;DHT22;55472;50.060;21.960;2023-05-01T01:45:48;3.20;74.70
68485;DHT22;55472;50.060;21.960;2023-05-01T01:48:22;3.20;74.80
68485;DHT22;55472;50.060;21.960;2023-05-01T01:50:52;3.20;75.00
68485;DHT22;55472;50.060;21.960;2023-05-01T01:53:20;3.10;75.00
68485;DHT22;55472;50.060;21.960;2023-05-01T01:55:47;3.10;75.20
68485;DHT22;55472;50.060;21.960;2023-05-01T01:58:15;3.10;75.10
68485;DHT22;55472;50.060;21.960;2023-05-01T02:00:44;3.10;75.00
68485;DHT22;55472;50.060;21.960;2023-05-01T02:03:12;3.00;75.30
68485;DHT22;55472;50.060;21.960;2023-05-01T02:05:41;3.00;75.80
68485;DHT22;55472;50.060;21.960;2023-05-01T02:08:08;3.00;75.50
68485;DHT22;55472;50.060;21.960;2023-05-01T02:10:37;3.00;75.70
68485;DHT22;55472;50.060;21.960;2023-05-01T02:13:05;2.90;75.40
68485;DHT22;55472;50.060;21.960;2023-05-01T02:15:33;2.80;75.70
68485;DHT22;55472;50.060;21.960;2023-05-01T02:18:02;2.80;75.70
68485;DHT22;55472;50.060;21.960;2023-05-01T02:20:30;2.80;75.30
68485;DHT22;55472;50.060;21.960;2023-05-01T02:22:57;2.70;75.50
68485;DHT22;55472;50.060;21.960;2023-05-01T02:25:24;2.70;75.20
68485;DHT22;55472;50.060;21.960;2023-05-01T02:27:55;2.70;74.80
68485;DHT22;55472;50.060;21.960;2023-05-01T02:30:24;2.60;75.50
68485;DHT22;55472;50.060;21.960;2023-05-01T02:32:51;2.90;75.10
68485;DHT22;55472;50.060;21.960;2023-05-01T02:35:17;2.50;76.00
68485;DHT22;55472;50.060;21.960;2023-05-01T02:37:44;2.40;75.90
68485;DHT22;55472;50.060;21.960;2023-05-01T02:40:11;2.40;76.50
68485;DHT22;55472;50.060;21.960;2023-05-01T02:42:44;2.40;76.70
68485;DHT22;55472;50.060;21.960;2023-05-01T02:45:18;2.30;76.70
68485;DHT22;55472;50.060;21.960;2023-05-01T02:47:50;2.30;76.70
68485;DHT22;55472;50.060;21.960;2023-05-01T02:50:18;2.20;77.20
68485;DHT22;55472;50.060;21.960;2023-05-01T02:52:45;2.20;77.50
68485;DHT22;55472;50.060;21.960;2023-05-01T02:55:12;2.10;77.10
68485;DHT22;55472;50.060;21.960;2023-05-01T02:57:38;2.00;77.40
68485;DHT22;55472;50.060;21.960;2023-05-01T03:00:05;1.90;77.60
68485;DHT22;55472;50.060;21.960;2023-05-01T03:02:34;1.90;78.30
68485;DHT22;55472;50.060;21.960;2023-05-01T03:05:00;1.90;78.60
68485;DHT22;55472;50.060;21.960;2023-05-01T03:07:26;1.80;78.10
68485;DHT22;55472;50.060;21.960;2023-05-01T03:10:00;1.80;78.30
68485;DHT22;55472;50.060;21.960;2023-05-01T03:12:29;1.80;78.80
68485;DHT22;55472;50.060;21.960;2023-05-01T03:14:56;1.80;78.70
68485;DHT22;55472;50.060;21.960;2023-05-01T03:17:22;1.80;78.70
68485;DHT22;55472;50.060;21.960;2023-05-01T03:19:48;1.80;78.80
68485;DHT22;55472;50.060;21.960;2023-05-01T03:22:15;1.70;79.30
68485;DHT22;55472;50.060;21.960;2023-05-01T03:24:41;1.70;79.40
68485;DHT22;55472;50.060;21.960;2023-05-01T03:27:07;1.70;79.10
68485;DHT22;55472;50.060;21.960;2023-05-01T03:29:34;1.70;79.40
68485;DHT22;55472;50.060;21.960;2023-05-01T03:32:03;1.70;79.00
68485;DHT22;55472;50.060;21.960;2023-05-01T03:34:29;1.70;79.10
68485;DHT22;55472;50.060;21.960;2023-05-01T03:36:56;1.70;79.00
68485;DHT22;55472;50.060;21.960;2023-05-01T03:39:22;1.70;79.30
68485;DHT22;55472;50.060;21.960;2023-05-01T03:41:48;1.70;79.90
68485;DHT22;55472;50.060;21.960;2023-05-01T03:44:14;1.70;79.80
68485;DHT22;55472;50.060;21.960;2023-05-01T03:46:40;1.70;79.80
68485;DHT22;55472;50.060;21.960;2023-05-01T03:49:06;1.70;80.10
68485;DHT22;55472;50.060;21.960;2023-05-01T03:51:32;1.70;80.60
68485;DHT22;55472;50.060;21.960;2023-05-01T03:53:58;1.70;80.90
68485;DHT22;55472;50.060;21.960;2023-05-01T03:56:25;1.80;80.90
68485;DHT22;55472;50.060;21.960;2023-05-01T03:58:51;1.80;80.80
68485;DHT22;55472;50.060;21.960;2023-05-01T04:01:18;1.90;81.20
68485;DHT22;55472;50.060;21.960;2023-05-01T04:03:44;1.90;80.90
68485;DHT22;55472;50.060;21.960;2023-05-01T04:06:12;2.00;81.30
68485;DHT22;55472;50.060;21.960;2023-05-01T04:08:38;2.00;81.40
68485;DHT22;55472;50.060;21.960;2023-05-01T04:11:04;2.00;82.00
68485;DHT22;55472;50.060;21.960;2023-05-01T04:13:31;2.10;82.40
68485;DHT22;55472;50.060;21.960;2023-05-01T04:15:57;2.20;82.70
68485;DHT22;55472;50.060;21.960;2023-05-01T04:18:24;2.20;82.80
68485;DHT22;55472;50.060;21.960;2023-05-01T04:20:51;2.30;82.90
68485;DHT22;55472;50.060;21.960;2023-05-01T04:23:17;2.40;83.20
68485;DHT22;55472;50.060;21.960;2023-05-01T04:25:43;2.50;83.30
68485;DHT22;55472;50.060;21.960;2023-05-01T04:28:11;2.60;83.10
68485;DHT22;55472;50.060;21.960;2023-05-01T04:30:38;2.70;83.00
68485;DHT22;55472;50.060;21.960;2023-05-01T04:33:04;2.80;83.20
68485;DHT22;55472;50.060;21.960;2023-05-01T04:35:37;2.90;83.30
68485;DHT22;55472;50.060;21.960;2023-05-01T04:38:07;3.10;83.20
68485;DHT22;55472;50.060;21.960;2023-05-01T04:40:35;3.20;82.90
68485;DHT22;55472;50.060;21.960;2023-05-01T04:43:01;3.30;82.10
68485;DHT22;55472;50.060;21.960;2023-05-01T04:45:27;3.40;81.20
68485;DHT22;55472;50.060;21.960;2023-05-01T04:47:53;3.50;80.80
68485;DHT22;55472;50.060;21.960;2023-05-01T04:50:19;3.70;80.90
68485;DHT22;55472;50.060;21.960;2023-05-01T04:52:45;3.80;80.60
68485;DHT22;55472;50.060;21.960;2023-05-01T04:55:12;4.00;79.90
68485;DHT22;55472;50.060;21.960;2023-05-01T04:57:38;4.10;79.20
68485;DHT22;55472;50.060;21.960;2023-05-01T05:00:04;4.30;78.60
68485;DHT22;55472;50.060;21.960;2023-05-01T05:02:32;4.40;78.00
68485;DHT22;55472;50.060;21.960;2023-05-01T05:04:58;4.60;77.60
68485;DHT22;55472;50.060;21.960;2023-05-01T05:07:24;4.70;76.90
68485;DHT22;55472;50.060;21.960;2023-05-01T05:09:50;4.90;76.50
68485;DHT22;55472;50.060;21.960;2023-05-01T05:12:16;5.00;75.90
68485;DHT22;55472;50.060;21.960;2023-05-01T05:14:43;5.20;74.40
68485;DHT22;55472;50.060;21.960;2023-05-01T05:17:09;5.30;73.20
68485;DHT22;55472;50.060;21.960;2023-05-01T05:19:35;5.40;73.50
68485;DHT22;55472;50.060;21.960;2023-05-01T05:22:02;5.60;72.60
68485;DHT22;55472;50.060;21.960;2023-05-01T05:24:29;5.70;72.20
68485;DHT22;55472;50.060;21.960;2023-05-01T05:26:55;5.90;72.10
68485;DHT22;55472;50.060;21.960;2023-05-01T05:29:21;6.00;70.70
68485;DHT22;55472;50.060;21.960;2023-05-01T05:31:47;6.20;69.60
68485;DHT22;55472;50.060;21.960;2023-05-01T05:34:14;6.30;68.70
68485;DHT22;55472;50.060;21.960;2023-05-01T05:36:40;6.40;68.60
68485;DHT22;55472;50.060;21.960;2023-05-01T05:39:06;6.50;67.40
68485;DHT22;55472;50.060;21.960;2023-05-01T05:41:32;6.60;65.60
68485;DHT22;55472;50.060;21.960;2023-05-01T05:43:58;6.80;65.60
68485;DHT22;55472;50.060;21.960;2023-05-01T05:46:24;6.90;65.60
68485;DHT22;55472;50.060;21.960;2023-05-01T05:48:50;7.00;64.30
68485;DHT22;55472;50.060;21.960;2023-05-01T05:51:16;7.20;65.20
68485;DHT22;55472;50.060;21.960;2023-05-01T05:53:44;7.30;65.60
68485;DHT22;55472;50.060;21.960;2023-05-01T05:56:10;7.50;64.70
68485;DHT22;55472;50.060;21.960;2023-05-01T05:58:36;7.70;64.60
68485;DHT22;55472;50.060;21.960;2023-05-01T06:01:02;7.80;64.30
68485;DHT22;55472;50.060;21.960;2023-05-01T06:03:28;8.00;64.20
68485;DHT22;55472;50.060;21.960;2023-05-01T06:05:54;8.20;63.50
68485;DHT22;55472;50.060;21.960;2023-05-01T06:08:21;8.40;62.50
68485;DHT22;55472;50.060;21.960;2023-05-01T06:10:47;8.60;61.50
68485;DHT22;55472;50.060;21.960;2023-05-01T06:13:13;8.70;61.40
68485;DHT22;55472;50.060;21.960;2023-05-01T06:15:40;8.80;60.90
68485;DHT22;55472;50.060;21.960;2023-05-01T06:18:06;9.00;60.50
68485;DHT22;55472;50.060;21.960;2023-05-01T06:20:32;9.20;59.10
68485;DHT22;55472;50.060;21.960;2023-05-01T06:22:58;9.30;56.80
68485;DHT22;55472;50.060;21.960;2023-05-01T06:25:24;9.40;55.90
68485;DHT22;55472;50.060;21.960;2023-05-01T06:27:51;9.70;54.10
68485;DHT22;55472;50.060;21.960;2023-05-01T06:30:17;9.70;52.10
68485;DHT22;55472;50.060;21.960;2023-05-01T06:32:47;9.70;52.20
68485;DHT22;55472;50.060;21.960;2023-05-01T06:35:13;9.80;54.10
68485;DHT22;55472;50.060;21.960;2023-05-01T06:37:39;10.00;55.20
68485;DHT22;55472;50.060;21.960;2023-05-01T06:40:07;10.10;54.40
68485;DHT22;55472;50.060;21.960;2023-05-01T06:42:38;10.30;54.80
68485;DHT22;55472;50.060;21.960;2023-05-01T06:45:06;10.40;51.00
68485;DHT22;55472;50.060;21.960;2023-05-01T06:47:32;10.50;50.70
68485;DHT22;55472;50.060;21.960;2023-05-01T06:49:58;10.70;50.20
68485;DHT22;55472;50.060;21.960;2023-05-01T06:52:25;10.70;50.00
68485;DHT22;55472;50.060;21.960;2023-05-01T06:54:51;10.80;49.70
68485;DHT22;55472;50.060;21.960;2023-05-01T06:57:17;11.00;49.80
68485;DHT22;55472;50.060;21.960;2023-05-01T06:59:43;11.10;51.30
68485;DHT22;55472;50.060;21.960;2023-05-01T07:02:10;11.30;50.50
68485;DHT22;55472;50.060;21.960;2023-05-01T07:04:36;11.60;50.60
68485;DHT22;55472;50.060;21.960;2023-05-01T07:07:02;11.70;48.70
68485;DHT22;55472;50.060;21.960;2023-05-01T07:09:28;11.80;49.00
68485;DHT22;55472;50.060;21.960;2023-05-01T07:11:55;12.00;49.40
68485;DHT22;55472;50.060;21.960;2023-05-01T07:14:23;12.20;47.90
68485;DHT22;55472;50.060;21.960;2023-05-01T07:16:49;12.20;46.90
68485;DHT22;55472;50.060;21.960;2023-05-01T07:19:15;12.30;47.30
68485;DHT22;55472;50.060;21.960;2023-05-01T07:21:41;12.60;48.70
68485;DHT22;55472;50.060;21.960;2023-05-01T07:24:07;12.80;48.30
68485;DHT22;55472;50.060;21.960;2023-05-01T07:26:34;13.10;48.50
68485;DHT22;55472;50.060;21.960;2023-05-01T07:29:00;13.40;46.70
68485;DHT22;55472;50.060;21.960;2023-05-01T07:31:27;13.50;45.60
68485;DHT22;55472;50.060;21.960;2023-05-01T07:33:53;13.70;45.10
68485;DHT22;55472;50.060;21.960;2023-05-01T07:36:19;13.90;45.10
68485;DHT22;55472;50.060;21.960;2023-05-01T07:38:47;14.10;44.90
68485;DHT22;55472;50.060;21.960;2023-05-01T07:41:14;14.30;41.40
68485;DHT22;55472;50.060;21.960;2023-05-01T07:43:39;14.30;42.40
68485;DHT22;55472;50.060;21.960;2023-05-01T07:46:06;14.50;41.80
68485;DHT22;55472;50.060;21.960;2023-05-01T07:48:32;14.70;40.40
68485;DHT22;55472;50.060;21.960;2023-05-01T07:51:01;14.70;40.30
68485;DHT22;55472;50.060;21.960;2023-05-01T07:53:27;14.70;39.00
68485;DHT22;55472;50.060;21.960;2023-05-01T07:56:03;14.80;40.30
68485;DHT22;55472;50.060;21.960;2023-05-01T07:58:31;14.90;38.50
68485;DHT22;55472;50.060;21.960;2023-05-01T08:00:57;15.00;39.70
68485;DHT22;55472;50.060;21.960;2023-05-01T08:03:27;15.20;39.70
68485;DHT22;55472;50.060;21.960;2023-05-01T08:05:55;15.30;38.90
68485;DHT22;55472;50.060;21.960;2023-05-01T08:08:21;15.60;39.10
68485;DHT22;55472;50.060;21.960;2023-05-01T08:10:47;15.80;38.10
68485;DHT22;55472;50.060;21.960;2023-05-01T08:13:14;15.90;37.10
68485;DHT22;55472;50.060;21.960;2023-05-01T08:15:40;15.90;38.30
68485;DHT22;55472;50.060;21.960;2023-05-01T08:18:10;15.80;37.60
68485;DHT22;55472;50.060;21.960;2023-05-01T08:20:37;16.10;37.80
68485;DHT22;55472;50.060;21.960;2023-05-01T08:23:03;16.40;37.70
68485;DHT22;55472;50.060;21.960;2023-05-01T08:25:29;16.70;37.10
68485;DHT22;55472;50.060;21.960;2023-05-01T08:27:56;16.80;37.00
68485;DHT22;55472;50.060;21.960;2023-05-01T08:30:23;16.80;35.20
68485;DHT22;55472;50.060;21.960;2023-05-01T08:32:49;16.80;35.90
68485;DHT22;55472;50.060;21.960;2023-05-01T08:35:15;16.90;36.60
68485;DHT22;55472;50.060;21.960;2023-05-01T08:37:41;17.30;35.00
68485;DHT22;55472;50.060;21.960;2023-05-01T08:40:08;17.50;35.90
68485;DHT22;55472;50.060;21.960;2023-05-01T08:42:35;18.10;36.10
68485;DHT22;55472;50.060;21.960;2023-05-01T08:45:07;18.90;35.00
68485;DHT22;55472;50.060;21.960;2023-05-01T08:47:38;19.90;34.80
68485;DHT22;55472;50.060;21.960;2023-05-01T08:50:09;21.10;32.60
68485;DHT22;55472;50.060;21.960;2023-05-01T08:52:42;22.80;29.70
68485;DHT22;55472;50.060;21.960;2023-05-01T08:55:13;23.80;28.20
68485;DHT22;55472;50.060;21.960;2023-05-01T08:57:44;24.90;27.80
68485;DHT22;55472;50.060;21.960;2023-05-01T09:00:17;26.60;26.70
68485;DHT22;55472;50.060;21.960;2023-05-01T09:02:45;27.90;25.50
68485;DHT22;55472;50.060;21.960;2023-05-01T09:05:15;30.50;24.20
68485;DHT22;55472;50.060;21.960;2023-05-01T09:07:42;31.00;23.50
68485;DHT22;55472;50.060;21.960;2023-05-01T09:10:12;31.90;22.50
68485;DHT22;55472;50.060;21.960;2023-05-01T09:12:39;32.80;21.60
68485;DHT22;55472;50.060;21.960;2023-05-01T09:15:07;33.70;21.30
68485;DHT22;55472;50.060;21.960;2023-05-01T09:17:34;34.50;20.80
68485;DHT22;55472;50.060;21.960;2023-05-01T09:20:03;35.50;20.70
68485;DHT22;55472;50.060;21.960;2023-05-01T09:22:33;36.20;20.10
68485;DHT22;55472;50.060;21.960;2023-05-01T09:25:00;37.10;19.70
68485;DHT22;55472;50.060;21.960;2023-05-01T09:27:28;37.60;19.10
68485;DHT22;55472;50.060;21.960;2023-05-01T09:29:58;37.90;18.60
68485;DHT22;55472;50.060;21.960;2023-05-01T09:32:25;36.60;19.90
68485;DHT22;55472;50.060;21.960;2023-05-01T09:37:35;35.40;19.60
68485;DHT22;55472;50.060;21.960;2023-05-01T09:40:12;34.30;20.70
68485;DHT22;55472;50.060;21.960;2023-05-01T09:42:49;33.20;21.40
68485;DHT22;55472;50.060;21.960;2023-05-01T09:45:18;31.00;22.40
68485;DHT22;55472;50.060;21.960;2023-05-01T09:47:45;27.80;24.00
68485;DHT22;55472;50.060;21.960;2023-05-01T09:50:29;26.70;25.90
68485;DHT22;55472;50.060;21.960;2023-05-01T09:57:58;27.60;25.00
68485;DHT22;55472;50.060;21.960;2023-05-01T10:00:25;27.40;24.70
68485;DHT22;55472;50.060;21.960;2023-05-01T10:02:51;28.10;25.50
68485;DHT22;55472;50.060;21.960;2023-05-01T10:05:18;26.10;25.60
68485;DHT22;55472;50.060;21.960;2023-05-01T10:08:00;24.30;26.60
68485;DHT22;55472;50.060;21.960;2023-05-01T10:10:28;24.50;27.40
68485;DHT22;55472;50.060;21.960;2023-05-01T10:12:54;24.40;27.40
68485;DHT22;55472;50.060;21.960;2023-05-01T10:15:21;24.10;28.70
68485;DHT22;55472;50.060;21.960;2023-05-01T10:17:49;24.10;28.80
68485;DHT22;55472;50.060;21.960;2023-05-01T10:20:18;24.20;28.10
68485;DHT22;55472;50.060;21.960;2023-05-01T10:22:44;24.20;29.20
68485;DHT22;55472;50.060;21.960;2023-05-01T10:25:11;24.40;28.00
68485;DHT22;55472;50.060;21.960;2023-05-01T10:27:38;23.10;29.30
68485;DHT22;55472;50.060;21.960;2023-05-01T10:30:06;22.40;29.70
68485;DHT22;55472;50.060;21.960;2023-05-01T10:32:34;22.10;29.50
68485;DHT22;55472;50.060;21.960;2023-05-01T10:35:14;21.90;30.70
68485;DHT22;55472;50.060;21.960;2023-05-01T10:37:46;22.30;30.00
68485;DHT22;55472;50.060;21.960;2023-05-01T10:51:16;23.30;29.20
68485;DHT22;55472;50.060;21.960;2023-05-01T10:53:46;23.00;29.80
68485;DHT22;55472;50.060;21.960;2023-05-01T10:59:00;23.30;30.40
68485;DHT22;55472;50.060;21.960;2023-05-01T11:01:39;23.30;29.30
68485;DHT22;55472;50.060;21.960;2023-05-01T11:09:42;22.40;30.10
68485;DHT22;55472;50.060;21.960;2023-05-01T11:12:11;22.10;30.10
68485;DHT22;55472;50.060;21.960;2023-05-01T11:20:07;21.50;31.30
68485;DHT22;55472;50.060;21.960;2023-05-01T11:22:35;21.70;31.40
68485;DHT22;55472;50.060;21.960;2023-05-01T11:25:02;21.90;31.80
68485;DHT22;55472;50.060;21.960;2023-05-01T11:27:30;22.00;32.40
68485;DHT22;55472;50.060;21.960;2023-05-01T11:29:58;22.10;32.30
68485;DHT22;55472;50.060;21.960;2023-05-01T11:32:27;21.90;31.70
68485;DHT22;55472;50.060;21.960;2023-05-01T11:34:55;21.10;31.60
68485;DHT22;55472;50.060;21.960;2023-05-01T11:37:51;20.80;32.90
68485;DHT22;55472;50.060;21.960;2023-05-01T11:40:32;20.50;32.90
68485;DHT22;55472;50.060;21.960;2023-05-01T11:43:04;20.70;32.30
68485;DHT22;55472;50.060;21.960;2023-05-01T11:45:34;21.00;32.80
68485;DHT22;55472;50.060;21.960;2023-05-01T11:48:01;21.10;33.30
68485;DHT22;55472;50.060;21.960;2023-05-01T11:50:32;21.30;33.00
68485;DHT22;55472;50.060;21.960;2023-05-01T11:53:00;21.30;32.60
68485;DHT22;55472;50.060;21.960;2023-05-01T11:55:31;21.10;32.70
68485;DHT22;55472;50.060;21.960;2023-05-01T11:57:58;20.90;32.10
68485;DHT22;55472;50.060;21.960;2023-05-01T12:00:30;20.80;33.80
68485;DHT22;55472;50.060;21.960;2023-05-01T12:03:10;21.00;32.80
68485;DHT22;55472;50.060;21.960;2023-05-01T12:05:39;20.60;33.30
68485;DHT22;55472;50.060;21.960;2023-05-01T12:08:16;20.20;34.60
68485;DHT22;55472;50.060;21.960;2023-05-01T12:10:54;20.30;34.30
68485;DHT22;55472;50.060;21.960;2023-05-01T12:13:21;20.50;34.00
68485;DHT22;55472;50.060;21.960;2023-05-01T12:15:53;20.70;34.40
68485;DHT22;55472;50.060;21.960;2023-05-01T12:18:20;20.90;34.50
68485;DHT22;55472;50.060;21.960;2023-05-01T12:20:48;20.80;33.30
68485;DHT22;55472;50.060;21.960;2023-05-01T12:23:19;20.20;32.80
68485;DHT22;55472;50.060;21.960;2023-05-01T12:25:56;19.70;34.20
68485;DHT22;55472;50.060;21.960;2023-05-01T12:28:22;19.40;35.00
68485;DHT22;55472;50.060;21.960;2023-05-01T12:30:48;19.50;36.30
68485;DHT22;55472;50.060;21.960;2023-05-01T12:33:17;19.30;35.40
68485;DHT22;55472;50.060;21.960;2023-05-01T12:35:46;19.20;36.50
68485;DHT22;55472;50.060;21.960;2023-05-01T12:38:17;19.30;36.40
68485;DHT22;55472;50.060;21.960;2023-05-01T12:40:57;19.60;36.40
68485;DHT22;55472;50.060;21.960;2023-05-01T12:43:32;19.90;36.40
68485;DHT22;55472;50.060;21.960;2023-05-01T12:45:59;20.20;35.50
68485;DHT22;55472;50.060;21.960;2023-05-01T12:48:26;20.30;35.80
68485;DHT22;55472;50.060;21.960;2023-05-01T12:50:52;20.40;35.60
68485;DHT22;55472;50.060;21.960;2023-05-01T12:53:21;20.40;35.20
68485;DHT22;55472;50.060;21.960;2023-05-01T12:55:50;20.50;35.60
68485;DHT22;55472;50.060;21.960;2023-05-01T12:58:18;20.30;35.10
68485;DHT22;55472;50.060;21.960;2023-05-01T13:00:50;19.70;35.40
68485;DHT22;55472;50.060;21.960;2023-05-01T13:03:25;19.40;36.10
68485;DHT22;55472;50.060;21.960;2023-05-01T13:08:25;19.10;37.00
68485;DHT22;55472;50.060;21.960;2023-05-01T13:10:57;19.10;37.20
68485;DHT22;55472;50.060;21.960;2023-05-01T13:13:34;19.20;36.90
68485;DHT22;55472;50.060;21.960;2023-05-01T13:16:06;18.80;36.80
68485;DHT22;55472;50.060;21.960;2023-05-01T13:18:51;18.70;37.40
68485;DHT22;55472;50.060;21.960;2023-05-01T13:21:22;18.70;37.30
68485;DHT22;55472;50.060;21.960;2023-05-01T13:23:56;18.30;36.80
68485;DHT22;55472;50.060;21.960;2023-05-01T13:26:28;18.10;38.10
68485;DHT22;55472;50.060;21.960;2023-05-01T13:28:57;18.10;38.30
68485;DHT22;55472;50.060;21.960;2023-05-01T13:31:25;18.10;37.70
68485;DHT22;55472;50.060;21.960;2023-05-01T13:33:53;18.00;39.40
68485;DHT22;55472;50.060;21.960;2023-05-01T13:36:20;18.00;37.70
68485;DHT22;55472;50.060;21.960;2023-05-01T13:38:51;18.10;38.90
68485;DHT22;55472;50.060;21.960;2023-05-01T13:41:20;18.20;39.20
68485;DHT22;55472;50.060;21.960;2023-05-01T13:43:48;18.40;39.00
68485;DHT22;55472;50.060;21.960;2023-05-01T13:46:16;18.40;37.80
68485;DHT22;55472;50.060;21.960;2023-05-01T13:48:44;18.40;37.80
68485;DHT22;55472;50.060;21.960;2023-05-01T13:51:18;18.40;38.90
68485;DHT22;55472;50.060;21.960;2023-05-01T13:53:46;18.50;37.70
68485;DHT22;55472;50.060;21.960;2023-05-01T13:56:12;18.60;37.80
68485;DHT22;55472;50.060;21.960;2023-05-01T13:58:40;18.30;36.90
68485;DHT22;55472;50.060;21.960;2023-05-01T14:01:15;18.20;38.10
68485;DHT22;55472;50.060;21.960;2023-05-01T14:03:43;18.10;38.00
68485;DHT22;55472;50.060;21.960;2023-05-01T14:06:15;18.10;38.20
68485;DHT22;55472;50.060;21.960;2023-05-01T14:08:43;18.20;38.80
68485;DHT22;55472;50.060;21.960;2023-05-01T14:11:10;18.20;38.40
68485;DHT22;55472;50.060;21.960;2023-05-01T14:13:40;18.10;37.50
68485;DHT22;55472;50.060;21.960;2023-05-01T14:16:09;18.10;38.80
68485;DHT22;55472;50.060;21.960;2023-05-01T14:18:43;18.00;38.20
68485;DHT22;55472;50.060;21.960;2023-05-01T14:21:11;17.90;38.00
68485;DHT22;55472;50.060;21.960;2023-05-01T14:23:40;17.80;39.10
68485;DHT22;55472;50.060;21.960;2023-05-01T14:26:08;17.80;39.20
68485;DHT22;55472;50.060;21.960;2023-05-01T14:28:43;17.90;37.80
68485;DHT22;55472;50.060;21.960;2023-05-01T14:31:28;17.80;38.90
68485;DHT22;55472;50.060;21.960;2023-05-01T14:34:00;17.80;39.50
68485;DHT22;55472;50.060;21.960;2023-05-01T14:36:29;17.70;38.80
68485;DHT22;55472;50.060;21.960;2023-05-01T14:38:59;17.70;37.90
68485;DHT22;55472;50.060;21.960;2023-05-01T14:41:26;17.60;38.70
68485;DHT22;55472;50.060;21.960;2023-05-01T14:43:52;17.60;38.80
68485;DHT22;55472;50.060;21.960;2023-05-01T14:46:30;17.60;38.90
68485;DHT22;55472;50.060;21.960;2023-05-01T14:48:58;17.40;39.20
68485;DHT22;55472;50.060;21.960;2023-05-01T14:51:26;17.40;40.00
68485;DHT22;55472;50.060;21.960;2023-05-01T14:53:53;17.50;40.10
68485;DHT22;55472;50.060;21.960;2023-05-01T14:56:19;17.40;38.60
68485;DHT22;55472;50.060;21.960;2023-05-01T14:58:47;17.40;39.50
68485;DHT22;55472;50.060;21.960;2023-05-01T15:01:14;17.40;39.30
68485;DHT22;55472;50.060;21.960;2023-05-01T15:03:40;17.30;40.00
68485;DHT22;55472;50.060;21.960;2023-05-01T15:06:08;17.30;39.60
68485;DHT22;55472;50.060;21.960;2023-05-01T15:08:35;17.30;40.50
68485;DHT22;55472;50.060;21.960;2023-05-01T15:11:02;17.40;40.90
68485;DHT22;55472;50.060;21.960;2023-05-01T15:13:29;17.30;39.70
68485;DHT22;55472;50.060;21.960;2023-05-01T15:15:56;17.30;40.00
68485;DHT22;55472;50.060;21.960;2023-05-01T15:18:22;17.30;39.60
68485;DHT22;55472;50.060;21.960;2023-05-01T15:20:48;17.20;39.20
68485;DHT22;55472;50.060;21.960;2023-05-01T15:23:14;17.20;39.60
68485;DHT22;55472;50.060;21.960;2023-05-01T15:25:40;17.20;39.40
68485;DHT22;55472;50.060;21.960;2023-05-01T15:28:09;17.10;39.00
68485;DHT22;55472;50.060;21.960;2023-05-01T15:30:35;17.00;40.20
68485;DHT22;55472;50.060;21.960;2023-05-01T15:33:01;16.90;39.90
68485;DHT22;55472;50.060;21.960;2023-05-01T15:35:28;16.90;40.50
68485;DHT22;55472;50.060;21.960;2023-05-01T15:37:54;16.90;40.00
68485;DHT22;55472;50.060;21.960;2023-05-01T15:40:22;16.80;40.70
68485;DHT22;55472;50.060;21.960;2023-05-01T15:42:48;16.80;40.10
68485;DHT22;55472;50.060;21.960;2023-05-01T15:45:15;16.70;40.70
68485;DHT22;55472;50.060;21.960;2023-05-01T15:47:41;16.70;41.10
68485;DHT22;55472;50.060;21.960;2023-05-01T15:50:09;16.70;40.70
68485;DHT22;55472;50.060;21.960;2023-05-01T15:52:37;16.70;40.70
68485;DHT22;55472;50.060;21.960;2023-05-01T15:55:03;16.70;40.50
68485;DHT22;55472;50.060;21.960;2023-05-01T15:57:32;16.60;40.50
68485;DHT22;55472;50.060;21.960;2023-05-01T15:59:58;16.50;40.50
68485;DHT22;55472;50.060;21.960;2023-05-01T16:02:25;16.40;41.00
68485;DHT22;55472;50.060;21.960;2023-05-01T16:04:53;16.40;41.20
68485;DHT22;55472;50.060;21.960;2023-05-01T16:07:23;16.40;41.60
68485;DHT22;55472;50.060;21.960;2023-05-01T16:09:51;16.40;41.60
68485;DHT22;55472;50.060;21.960;2023-05-01T16:12:17;16.40;41.60
68485;DHT22;55472;50.060;21.960;2023-05-01T16:14:43;16.40;42.00